sensor_id;sensor_type;location;lat;lon;timestamp;P1;durP1;ratioP1;P2;durP2;ratioP2
14272;SDS011;7220;49.450;11.052;2023-04-03T00:03:48;2.90;;;2.05;;
14272;SDS011;7220;49.450;11.052;2023-04-03T00:07:48;2.20;;;2.00;;
14272;SDS011;7220;49.450;11.052;2023-04-03T00:11:49;3.90;;;2.45;;
14272;SDS011;7220;49.450;11.052;2023-04-03T00:15:50;2.72;;;2.10;;
14272;SDS011;7220;49.450;11.052;2023-04-03T00:19:51;4.00;;;2.17;;
14272;SDS011;7220;49.450;11.052;2023-04-03T00:23:51;2.15;;;1.95;;
14272;SDS011;7220;49.450;11.052;2023-04-03T00:27:52;2.00;;;1.90;;
14272;SDS011;7220;49.450;11.052;2023-04-03T00:31:52;2.42;;;2.22;;
14272;SDS011;7220;49.450;11.052;2023-04-03T00:35:52;2.22;;;2.03;;
14272;SDS011;7220;49.450;11.052;2023-04-03T00:39:53;2.30;;;2.10;;
14272;SDS011;7220;49.450;11.052;2023-04-03T00:43:53;4.63;;;2.50;;
14272;SDS011;7220;49.450;11.052;2023-04-03T00:47:54;2.92;;;2.03;;
14272;SDS011;7220;49.450;11.052;2023-04-03T00:51:55;2.25;;;2.10;;
14272;SDS011;7220;49.450;11.052;2023-04-03T00:55:58;2.75;;;2.10;;
14272;SDS011;7220;49.450;11.052;2023-04-03T01:00:02;3.20;;;2.28;;
14272;SDS011;7220;49.450;11.052;2023-04-03T01:04:28;3.22;;;2.25;;
14272;SDS011;7220;49.450;11.052;2023-04-03T01:08:29;2.47;;;2.28;;
14272;SDS011;7220;49.450;11.052;2023-04-03T01:12:33;1.88;;;1.77;;
14272;SDS011;7220;49.450;11.052;2023-04-03T01:16:39;2.50;;;2.08;;
14272;SDS011;7220;49.450;11.052;2023-04-03T01:20:46;2.00;;;1.80;;
14272;SDS011;7220;49.450;11.052;2023-04-03T01:25:03;2.25;;;2.10;;
14272;SDS011;7220;49.450;11.052;2023-04-03T01:29:04;2.78;;;2.03;;
14272;SDS011;7220;49.450;11.052;2023-04-03T01:33:04;2.38;;;2.17;;
14272;SDS011;7220;49.450;11.052;2023-04-03T01:37:04;3.10;;;2.30;;
14272;SDS011;7220;49.450;11.052;2023-04-03T01:41:05;2.45;;;2.20;;
14272;SDS011;7220;49.450;11.052;2023-04-03T01:45:05;1.90;;;1.80;;
14272;SDS011;7220;49.450;11.052;2023-04-03T01:49:06;2.50;;;2.30;;
14272;SDS011;7220;49.450;11.052;2023-04-03T01:53:06;2.58;;;2.15;;
14272;SDS011;7220;49.450;11.052;2023-04-03T01:57:07;2.75;;;1.95;;
14272;SDS011;7220;49.450;11.052;2023-04-03T02:01:07;2.22;;;1.98;;
14272;SDS011;7220;49.450;11.052;2023-04-03T02:05:08;2.60;;;1.90;;
14272;SDS011;7220;49.450;11.052;2023-04-03T02:09:08;2.10;;;1.90;;
14272;SDS011;7220;49.450;11.052;2023-04-03T02:13:09;2.30;;;2.10;;
14272;SDS011;7220;49.450;11.052;2023-04-03T02:17:09;2.03;;;1.92;;
14272;SDS011;7220;49.450;11.052;2023-04-03T02:21:09;2.60;;;1.70;;
14272;SDS011;7220;49.450;11.052;2023-04-03T02:25:10;2.30;;;2.10;;
14272;SDS011;7220;49.450;11.052;2023-04-03T02:29:10;2.05;;;1.83;;
14272;SDS011;7220;49.450;11.052;2023-04-03T02:33:11;2.67;;;2.45;;
14272;SDS011;7220;49.450;11.052;2023-04-03T02:37:11;2.40;;;2.20;;
14272;SDS011;7220;49.450;11.052;2023-04-03T02:41:12;2.65;;;2.20;;
14272;SDS011;7220;49.450;11.052;2023-04-03T02:45:12;2.97;;;2.20;;
14272;SDS011;7220;49.450;11.052;2023-04-03T02:49:12;3.42;;;2.42;;
14272;SDS011;7220;49.450;11.052;2023-04-03T02:53:13;2.33;;;2.13;;
14272;SDS011;7220;49.450;11.052;2023-04-03T02:57:13;2.80;;;2.08;;
14272;SDS011;7220;49.450;11.052;2023-04-03T03:01:14;2.10;;;1.98;;
14272;SDS011;7220;49.450;11.052;2023-04-03T03:05:15;2.63;;;2.42;;
14272;SDS011;7220;49.450;11.052;2023-04-03T03:09:15;2.28;;;2.08;;
14272;SDS011;7220;49.450;11.052;2023-04-03T03:13:16;2.88;;;2.05;;
14272;SDS011;7220;49.450;11.052;2023-04-03T03:17:16;2.53;;;2.33;;
14272;SDS011;7220;49.450;11.052;2023-04-03T03:21:17;2.53;;;2.33;;
14272;SDS011;7220;49.450;11.052;2023-04-03T03:25:17;4.53;;;2.75;;
14272;SDS011;7220;49.450;11.052;2023-04-03T03:29:17;2.78;;;2.58;;
14272;SDS011;7220;49.450;11.052;2023-04-03T03:33:18;2.95;;;2.58;;
14272;SDS011;7220;49.450;11.052;2023-04-03T03:37:18;3.00;;;2.55;;
14272;SDS011;7220;49.450;11.052;2023-04-03T03:41:19;2.95;;;2.60;;
14272;SDS011;7220;49.450;11.052;2023-04-03T03:45:19;3.05;;;2.60;;
14272;SDS011;7220;49.450;11.052;2023-04-03T03:49:19;2.72;;;2.50;;
14272;SDS011;7220;49.450;11.052;2023-04-03T03:53:20;4.68;;;3.05;;
14272;SDS011;7220;49.450;11.052;2023-04-03T03:57:20;3.13;;;2.72;;
14272;SDS011;7220;49.450;11.052;2023-04-03T04:01:21;2.67;;;2.35;;
14272;SDS011;7220;49.450;11.052;2023-04-03T04:05:22;3.00;;;2.70;;
14272;SDS011;7220;49.450;11.052;2023-04-03T04:09:23;4.43;;;2.70;;
14272;SDS011;7220;49.450;11.052;2023-04-03T04:13:23;4.90;;;2.92;;
14272;SDS011;7220;49.450;11.052;2023-04-03T04:17:23;4.35;;;2.60;;
14272;SDS011;7220;49.450;11.052;2023-04-03T04:21:24;3.30;;;2.97;;
14272;SDS011;7220;49.450;11.052;2023-04-03T04:25:24;4.05;;;2.67;;
14272;SDS011;7220;49.450;11.052;2023-04-03T04:29:24;3.85;;;3.00;;
14272;SDS011;7220;49.450;11.052;2023-04-03T04:33:25;5.70;;;3.08;;
14272;SDS011;7220;49.450;11.052;2023-04-03T04:37:25;3.33;;;3.00;;
14272;SDS011;7220;49.450;11.052;2023-04-03T04:41:25;5.35;;;3.30;;
14272;SDS011;7220;49.450;11.052;2023-04-03T04:45:26;3.75;;;2.80;;
14272;SDS011;7220;49.450;11.052;2023-04-03T04:49:26;5.43;;;3.10;;
14272;SDS011;7220;49.450;11.052;2023-04-03T04:53:26;3.15;;;2.88;;
14272;SDS011;7220;49.450;11.052;2023-04-03T04:57:27;3.85;;;3.50;;
14272;SDS011;7220;49.450;11.052;2023-04-03T05:01:27;4.25;;;3.42;;
14272;SDS011;7220;49.450;11.052;2023-04-03T05:05:28;5.68;;;3.55;;
14272;SDS011;7220;49.450;11.052;2023-04-03T05:09:29;3.35;;;3.05;;
14272;SDS011;7220;49.450;11.052;2023-04-03T05:13:29;3.40;;;2.88;;
14272;SDS011;7220;49.450;11.052;2023-04-03T05:17:30;4.28;;;3.17;;
14272;SDS011;7220;49.450;11.052;2023-04-03T05:21:30;6.57;;;2.95;;
14272;SDS011;7220;49.450;11.052;2023-04-03T05:25:32;4.85;;;3.30;;
14272;SDS011;7220;49.450;11.052;2023-04-03T05:29:32;5.43;;;3.00;;
14272;SDS011;7220;49.450;11.052;2023-04-03T05:33:32;6.55;;;3.50;;
14272;SDS011;7220;49.450;11.052;2023-04-03T05:37:33;4.32;;;3.17;;
14272;SDS011;7220;49.450;11.052;2023-04-03T05:41:34;3.88;;;3.13;;
14272;SDS011;7220;49.450;11.052;2023-04-03T05:45:34;4.57;;;2.83;;
14272;SDS011;7220;49.450;11.052;2023-04-03T05:49:35;4.68;;;2.88;;
14272;SDS011;7220;49.450;11.052;2023-04-03T05:53:36;4.07;;;2.88;;
14272;SDS011;7220;49.450;11.052;2023-04-03T05:57:37;5.38;;;3.22;;
14272;SDS011;7220;49.450;11.052;2023-04-03T06:01:37;5.57;;;3.25;;
14272;SDS011;7220;49.450;11.052;2023-04-03T06:05:37;4.53;;;3.22;;
14272;SDS011;7220;49.450;11.052;2023-04-03T06:09:38;7.43;;;2.75;;
14272;SDS011;7220;49.450;11.052;2023-04-03T06:13:38;2.88;;;2.65;;
14272;SDS011;7220;49.450;11.052;2023-04-03T06:17:39;4.68;;;2.80;;
14272;SDS011;7220;49.450;11.052;2023-04-03T06:21:39;6.05;;;2.63;;
14272;SDS011;7220;49.450;11.052;2023-04-03T06:25:40;4.03;;;2.50;;
14272;SDS011;7220;49.450;11.052;2023-04-03T06:29:40;4.07;;;2.78;;
14272;SDS011;7220;49.450;11.052;2023-04-03T06:33:41;5.28;;;3.25;;
14272;SDS011;7220;49.450;11.052;2023-04-03T06:37:41;4.65;;;2.95;;
14272;SDS011;7220;49.450;11.052;2023-04-03T06:41:41;6.03;;;3.05;;
14272;SDS011;7220;49.450;11.052;2023-04-03T06:45:42;5.68;;;3.17;;
14272;SDS011;7220;49.450;11.052;2023-04-03T06:49:43;3.67;;;2.90;;
14272;SDS011;7220;49.450;11.052;2023-04-03T06:53:43;5.05;;;3.28;;
14272;SDS011;7220;49.450;11.052;2023-04-03T06:57:44;5.93;;;3.40;;
14272;SDS011;7220;49.450;11.052;2023-04-03T07:01:44;6.15;;;3.40;;
14272;SDS011;7220;49.450;11.052;2023-04-03T07:05:45;5.28;;;3.13;;
14272;SDS011;7220;49.450;11.052;2023-04-03T07:09:45;6.43;;;3.20;;
14272;SDS011;7220;49.450;11.052;2023-04-03T07:13:48;7.32;;;3.63;;
14272;SDS011;7220;49.450;11.052;2023-04-03T07:17:48;5.82;;;2.97;;
14272;SDS011;7220;49.450;11.052;2023-04-03T07:21:48;5.85;;;3.17;;
14272;SDS011;7220;49.450;11.052;2023-04-03T07:25:49;4.35;;;3.08;;
14272;SDS011;7220;49.450;11.052;2023-04-03T07:29:50;3.58;;;2.80;;
14272;SDS011;7220;49.450;11.052;2023-04-03T07:33:51;3.90;;;3.25;;
14272;SDS011;7220;49.450;11.052;2023-04-03T07:37:51;5.18;;;3.30;;
14272;SDS011;7220;49.450;11.052;2023-04-03T07:41:51;3.25;;;2.88;;
14272;SDS011;7220;49.450;11.052;2023-04-03T07:45:52;4.72;;;3.28;;
14272;SDS011;7220;49.450;11.052;2023-04-03T07:49:54;4.35;;;2.83;;
14272;SDS011;7220;49.450;11.052;2023-04-03T07:53:54;4.93;;;3.13;;
14272;SDS011;7220;49.450;11.052;2023-04-03T07:57:54;4.80;;;3.53;;
14272;SDS011;7220;49.450;11.052;2023-04-03T08:01:55;4.72;;;3.47;;
14272;SDS011;7220;49.450;11.052;2023-04-03T08:06:00;5.60;;;3.85;;
14272;SDS011;7220;49.450;11.052;2023-04-03T08:10:05;5.35;;;3.25;;
14272;SDS011;7220;49.450;11.052;2023-04-03T08:14:05;6.78;;;3.67;;
14272;SDS011;7220;49.450;11.052;2023-04-03T08:18:06;4.85;;;3.30;;
14272;SDS011;7220;49.450;11.052;2023-04-03T08:22:06;7.28;;;3.60;;
14272;SDS011;7220;49.450;11.052;2023-04-03T08:26:11;5.32;;;3.05;;
14272;SDS011;7220;49.450;11.052;2023-04-03T08:30:12;3.53;;;2.72;;
14272;SDS011;7220;49.450;11.052;2023-04-03T08:34:13;5.85;;;3.83;;
14272;SDS011;7220;49.450;11.052;2023-04-03T08:38:14;4.10;;;2.72;;
14272;SDS011;7220;49.450;11.052;2023-04-03T08:46:52;4.47;;;2.92;;
14272;SDS011;7220;49.450;11.052;2023-04-03T08:50:57;3.40;;;2.70;;
14272;SDS011;7220;49.450;11.052;2023-04-03T08:55:01;4.82;;;2.67;;
14272;SDS011;7220;49.450;11.052;2023-04-03T08:59:05;3.40;;;2.45;;
14272;SDS011;7220;49.450;11.052;2023-04-03T09:03:13;3.67;;;2.45;;
14272;SDS011;7220;49.450;11.052;2023-04-03T09:07:18;3.65;;;2.28;;
14272;SDS011;7220;49.450;11.052;2023-04-03T09:11:26;2.97;;;1.85;;
14272;SDS011;7220;49.450;11.052;2023-04-03T09:15:54;2.22;;;2.00;;
14272;SDS011;7220;49.450;11.052;2023-04-03T09:24:34;3.55;;;2.70;;
14272;SDS011;7220;49.450;11.052;2023-04-03T09:28:37;2.40;;;2.17;;
14272;SDS011;7220;49.450;11.052;2023-04-03T09:32:39;4.20;;;2.15;;
14272;SDS011;7220;49.450;11.052;2023-04-03T09:36:46;4.72;;;2.60;;
14272;SDS011;7220;49.450;11.052;2023-04-03T09:45:22;3.97;;;2.30;;
14272;SDS011;7220;49.450;11.052;2023-04-03T09:49:33;3.00;;;2.30;;
14272;SDS011;7220;49.450;11.052;2023-04-03T09:53:43;3.88;;;2.20;;
14272;SDS011;7220;49.450;11.052;2023-04-03T09:57:44;2.63;;;1.80;;
14272;SDS011;7220;49.450;11.052;2023-04-03T10:01:59;2.65;;;2.20;;
14272;SDS011;7220;49.450;11.052;2023-04-03T10:06:03;5.00;;;2.28;;
14272;SDS011;7220;49.450;11.052;2023-04-03T10:10:16;1.98;;;1.80;;
14272;SDS011;7220;49.450;11.052;2023-04-03T10:14:23;5.22;;;1.92;;
14272;SDS011;7220;49.450;11.052;2023-04-03T10:27:30;4.47;;;2.90;;
14272;SDS011;7220;49.450;11.052;2023-04-03T10:36:33;2.83;;;2.13;;
14272;SDS011;7220;49.450;11.052;2023-04-03T10:40:45;3.95;;;2.63;;
14272;SDS011;7220;49.450;11.052;2023-04-03T10:58:00;3.08;;;2.00;;
14272;SDS011;7220;49.450;11.052;2023-04-03T11:02:07;2.15;;;1.95;;
14272;SDS011;7220;49.450;11.052;2023-04-03T11:06:27;1.77;;;1.65;;
14272;SDS011;7220;49.450;11.052;2023-04-03T11:10:40;3.70;;;2.15;;
14272;SDS011;7220;49.450;11.052;2023-04-03T11:14:42;2.40;;;1.83;;
14272;SDS011;7220;49.450;11.052;2023-04-03T11:19:03;2.10;;;1.75;;
14272;SDS011;7220;49.450;11.052;2023-04-03T11:23:19;3.30;;;1.98;;
14272;SDS011;7220;49.450;11.052;2023-04-03T11:27:24;2.08;;;1.88;;
14272;SDS011;7220;49.450;11.052;2023-04-03T11:31:33;2.50;;;1.88;;
14272;SDS011;7220;49.450;11.052;2023-04-03T11:35:52;2.63;;;2.03;;
14272;SDS011;7220;49.450;11.052;2023-04-03T11:40:43;3.40;;;1.98;;
14272;SDS011;7220;49.450;11.052;2023-04-03T11:56:38;1.95;;;1.60;;
14272;SDS011;7220;49.450;11.052;2023-04-03T12:13:32;2.55;;;1.58;;
14272;SDS011;7220;49.450;11.052;2023-04-03T12:17:32;3.27;;;1.80;;
14272;SDS011;7220;49.450;11.052;2023-04-03T12:25:49;2.10;;;1.90;;
14272;SDS011;7220;49.450;11.052;2023-04-03T12:34:15;2.97;;;1.77;;
14272;SDS011;7220;49.450;11.052;2023-04-03T12:38:33;4.30;;;2.10;;
14272;SDS011;7220;49.450;11.052;2023-04-03T12:42:46;3.08;;;1.70;;
14272;SDS011;7220;49.450;11.052;2023-04-03T12:47:08;2.10;;;1.80;;
14272;SDS011;7220;49.450;11.052;2023-04-03T12:51:28;3.15;;;2.17;;
14272;SDS011;7220;49.450;11.052;2023-04-03T12:55:30;3.05;;;2.20;;
14272;SDS011;7220;49.450;11.052;2023-04-03T12:59:30;2.35;;;1.90;;
14272;SDS011;7220;49.450;11.052;2023-04-03T13:03:30;1.70;;;1.60;;
14272;SDS011;7220;49.450;11.052;2023-04-03T13:07:32;2.70;;;1.77;;
14272;SDS011;7220;49.450;11.052;2023-04-03T13:11:38;2.20;;;1.90;;
14272;SDS011;7220;49.450;11.052;2023-04-03T13:15:43;2.45;;;1.83;;
14272;SDS011;7220;49.450;11.052;2023-04-03T13:19:45;4.93;;;2.20;;
14272;SDS011;7220;49.450;11.052;2023-04-03T13:23:47;3.10;;;2.05;;
14272;SDS011;7220;49.450;11.052;2023-04-03T13:27:50;2.88;;;1.90;;
14272;SDS011;7220;49.450;11.052;2023-04-03T13:31:52;3.58;;;2.00;;
14272;SDS011;7220;49.450;11.052;2023-04-03T13:35:56;2.55;;;1.90;;
14272;SDS011;7220;49.450;11.052;2023-04-03T13:48:23;3.15;;;1.95;;
14272;SDS011;7220;49.450;11.052;2023-04-03T13:52:28;3.33;;;1.90;;
14272;SDS011;7220;49.450;11.052;2023-04-03T13:56:36;2.58;;;2.10;;
14272;SDS011;7220;49.450;11.052;2023-04-03T14:00:50;2.90;;;1.95;;
14272;SDS011;7220;49.450;11.052;2023-04-03T14:05:08;7.03;;;2.20;;
14272;SDS011;7220;49.450;11.052;2023-04-03T14:09:08;3.97;;;2.15;;
14272;SDS011;7220;49.450;11.052;2023-04-03T14:13:11;2.58;;;1.77;;
14272;SDS011;7220;49.450;11.052;2023-04-03T14:17:16;2.53;;;1.98;;
14272;SDS011;7220;49.450;11.052;2023-04-03T14:21:19;1.92;;;1.70;;
14272;SDS011;7220;49.450;11.052;2023-04-03T14:25:20;3.00;;;1.70;;
14272;SDS011;7220;49.450;11.052;2023-04-03T14:29:23;3.58;;;1.83;;
14272;SDS011;7220;49.450;11.052;2023-04-03T14:33:23;3.47;;;2.92;;
14272;SDS011;7220;49.450;11.052;2023-04-03T14:37:27;2.33;;;1.80;;
14272;SDS011;7220;49.450;11.052;2023-04-03T14:41:29;1.75;;;1.60;;
14272;SDS011;7220;49.450;11.052;2023-04-03T14:45:29;2.83;;;2.08;;
14272;SDS011;7220;49.450;11.052;2023-04-03T14:49:29;1.90;;;1.77;;
14272;SDS011;7220;49.450;11.052;2023-04-03T14:53:30;2.45;;;1.95;;
14272;SDS011;7220;49.450;11.052;2023-04-03T14:57:32;2.20;;;2.00;;
14272;SDS011;7220;49.450;11.052;2023-04-03T15:01:33;2.80;;;1.83;;
14272;SDS011;7220;49.450;11.052;2023-04-03T15:05:34;2.25;;;1.88;;
14272;SDS011;7220;49.450;11.052;2023-04-03T15:09:35;2.67;;;2.08;;
14272;SDS011;7220;49.450;11.052;2023-04-03T15:13:36;2.05;;;1.83;;
14272;SDS011;7220;49.450;11.052;2023-04-03T15:17:37;2.97;;;1.95;;
14272;SDS011;7220;49.450;11.052;2023-04-03T15:21:38;2.15;;;1.80;;
14272;SDS011;7220;49.450;11.052;2023-04-03T15:25:39;2.03;;;1.83;;
14272;SDS011;7220;49.450;11.052;2023-04-03T15:29:39;2.35;;;2.10;;
14272;SDS011;7220;49.450;11.052;2023-04-03T15:33:41;2.13;;;1.92;;
14272;SDS011;7220;49.450;11.052;2023-04-03T15:37:42;3.40;;;1.90;;
14272;SDS011;7220;49.450;11.052;2023-04-03T15:41:42;3.67;;;2.30;;
14272;SDS011;7220;49.450;11.052;2023-04-03T15:45:43;2.38;;;1.85;;
14272;SDS011;7220;49.450;11.052;2023-04-03T15:49:44;2.70;;;1.90;;
14272;SDS011;7220;49.450;11.052;2023-04-03T15:53:44;2.42;;;1.95;;
14272;SDS011;7220;49.450;11.052;2023-04-03T15:57:44;3.60;;;2.10;;
14272;SDS011;7220;49.450;11.052;2023-04-03T16:01:45;2.73;;;2.07;;
14272;SDS011;7220;49.450;11.052;2023-04-03T16:05:45;3.50;;;1.98;;
14272;SDS011;7220;49.450;11.052;2023-04-03T16:09:46;1.83;;;1.73;;
14272;SDS011;7220;49.450;11.052;2023-04-03T16:13:46;2.38;;;1.80;;
14272;SDS011;7220;49.450;11.052;2023-04-03T16:17:47;3.07;;;2.00;;
14272;SDS011;7220;49.450;11.052;2023-04-03T16:21:48;2.05;;;1.80;;
14272;SDS011;7220;49.450;11.052;2023-04-03T16:25:48;4.38;;;2.00;;
14272;SDS011;7220;49.450;11.052;2023-04-03T16:29:49;3.10;;;2.30;;
14272;SDS011;7220;49.450;11.052;2023-04-03T16:33:50;3.67;;;2.05;;
14272;SDS011;7220;49.450;11.052;2023-04-03T16:37:50;3.42;;;2.10;;
14272;SDS011;7220;49.450;11.052;2023-04-03T16:41:50;2.90;;;2.00;;
14272;SDS011;7220;49.450;11.052;2023-04-03T16:45:51;4.82;;;2.50;;
14272;SDS011;7220;49.450;11.052;2023-04-03T16:49:52;2.53;;;2.03;;
14272;SDS011;7220;49.450;11.052;2023-04-03T16:53:52;2.63;;;2.00;;
14272;SDS011;7220;49.450;11.052;2023-04-03T16:57:52;2.90;;;2.15;;
14272;SDS011;7220;49.450;11.052;2023-04-03T17:01:54;3.05;;;1.80;;
14272;SDS011;7220;49.450;11.052;2023-04-03T17:05:56;3.53;;;1.90;;
14272;SDS011;7220;49.450;11.052;2023-04-03T17:09:56;4.05;;;2.25;;
14272;SDS011;7220;49.450;11.052;2023-04-03T17:13:57;2.70;;;2.08;;
14272;SDS011;7220;49.450;11.052;2023-04-03T17:17:57;2.38;;;1.63;;
14272;SDS011;7220;49.450;11.052;2023-04-03T17:21:58;2.28;;;2.00;;
14272;SDS011;7220;49.450;11.052;2023-04-03T17:25:58;3.72;;;2.28;;
14272;SDS011;7220;49.450;11.052;2023-04-03T17:29:59;2.33;;;1.67;;
14272;SDS011;7220;49.450;11.052;2023-04-03T17:33:59;3.55;;;1.88;;
14272;SDS011;7220;49.450;11.052;2023-04-03T17:38:03;3.03;;;1.80;;
14272;SDS011;7220;49.450;11.052;2023-04-03T17:42:03;1.65;;;1.40;;
14272;SDS011;7220;49.450;11.052;2023-04-03T17:46:05;3.10;;;1.83;;
14272;SDS011;7220;49.450;11.052;2023-04-03T17:50:07;2.85;;;2.00;;
14272;SDS011;7220;49.450;11.052;2023-04-03T17:54:08;2.83;;;1.83;;
14272;SDS011;7220;49.450;11.052;2023-04-03T17:58:09;2.67;;;1.90;;
14272;SDS011;7220;49.450;11.052;2023-04-03T18:02:10;2.03;;;1.83;;
14272;SDS011;7220;49.450;11.052;2023-04-03T18:06:11;3.45;;;2.15;;
14272;SDS011;7220;49.450;11.052;2023-04-03T18:10:14;3.67;;;1.92;;
14272;SDS011;7220;49.450;11.052;2023-04-03T18:14:16;3.72;;;1.65;;
14272;SDS011;7220;49.450;11.052;2023-04-03T18:18:20;3.80;;;2.22;;
14272;SDS011;7220;49.450;11.052;2023-04-03T18:22:21;4.03;;;2.25;;
14272;SDS011;7220;49.450;11.052;2023-04-03T18:26:25;2.58;;;2.17;;
14272;SDS011;7220;49.450;11.052;2023-04-03T18:30:28;3.47;;;2.05;;
14272;SDS011;7220;49.450;11.052;2023-04-03T18:34:28;4.95;;;2.17;;
14272;SDS011;7220;49.450;11.052;2023-04-03T18:38:29;3.58;;;2.28;;
14272;SDS011;7220;49.450;11.052;2023-04-03T18:42:30;4.45;;;2.40;;
14272;SDS011;7220;49.450;11.052;2023-04-03T18:46:31;2.83;;;1.80;;
14272;SDS011;7220;49.450;11.052;2023-04-03T18:50:32;3.72;;;2.33;;
14272;SDS011;7220;49.450;11.052;2023-04-03T18:54:33;2.63;;;2.13;;
14272;SDS011;7220;49.450;11.052;2023-04-03T18:58:36;3.67;;;2.10;;
14272;SDS011;7220;49.450;11.052;2023-04-03T19:02:36;3.15;;;1.95;;
14272;SDS011;7220;49.450;11.052;2023-04-03T19:06:37;2.13;;;1.98;;
14272;SDS011;7220;49.450;11.052;2023-04-03T19:10:37;2.30;;;2.03;;
14272;SDS011;7220;49.450;11.052;2023-04-03T19:14:37;2.83;;;2.03;;
14272;SDS011;7220;49.450;11.052;2023-04-03T19:18:38;2.20;;;2.00;;
14272;SDS011;7220;49.450;11.052;2023-04-03T19:22:38;4.53;;;2.08;;
14272;SDS011;7220;49.450;11.052;2023-04-03T19:26:40;3.40;;;2.10;;
14272;SDS011;7220;49.450;11.052;2023-04-03T19:30:41;3.13;;;2.15;;
14272;SDS011;7220;49.450;11.052;2023-04-03T19:34:41;2.72;;;1.85;;
14272;SDS011;7220;49.450;11.052;2023-04-03T19:38:43;3.13;;;1.70;;
14272;SDS011;7220;49.450;11.052;2023-04-03T19:42:44;2.80;;;1.83;;
14272;SDS011;7220;49.450;11.052;2023-04-03T19:46:45;3.13;;;2.10;;
14272;SDS011;7220;49.450;11.052;2023-04-03T19:50:45;2.97;;;2.03;;
14272;SDS011;7220;49.450;11.052;2023-04-03T19:54:46;5.47;;;2.58;;
14272;SDS011;7220;49.450;11.052;2023-04-03T19:58:46;3.50;;;2.15;;
14272;SDS011;7220;49.450;11.052;2023-04-03T20:02:52;3.17;;;2.30;;
14272;SDS011;7220;49.450;11.052;2023-04-03T20:06:53;2.17;;;1.92;;
14272;SDS011;7220;49.450;11.052;2023-04-03T20:10:54;2.00;;;1.90;;
14272;SDS011;7220;49.450;11.052;2023-04-03T20:14:55;4.53;;;3.17;;
14272;SDS011;7220;49.450;11.052;2023-04-03T20:18:58;3.35;;;2.80;;
14272;SDS011;7220;49.450;11.052;2023-04-03T20:23:00;3.38;;;2.50;;
14272;SDS011;7220;49.450;11.052;2023-04-03T20:27:00;2.95;;;2.20;;
14272;SDS011;7220;49.450;11.052;2023-04-03T20:31:00;2.38;;;2.00;;
14272;SDS011;7220;49.450;11.052;2023-04-03T20:35:01;4.35;;;2.00;;
14272;SDS011;7220;49.450;11.052;2023-04-03T20:39:01;4.53;;;2.33;;
14272;SDS011;7220;49.450;11.052;2023-04-03T20:43:02;3.33;;;2.40;;
14272;SDS011;7220;49.450;11.052;2023-04-03T20:47:03;4.07;;;2.08;;
14272;SDS011;7220;49.450;11.052;2023-04-03T20:51:10;3.88;;;1.92;;
14272;SDS011;7220;49.450;11.052;2023-04-03T20:55:13;3.95;;;2.50;;
14272;SDS011;7220;49.450;11.052;2023-04-03T20:59:15;1.92;;;1.83;;
14272;SDS011;7220;49.450;11.052;2023-04-03T21:03:15;4.32;;;2.13;;
14272;SDS011;7220;49.450;11.052;2023-04-03T21:20:36;6.70;;;4.97;;
14272;SDS011;7220;49.450;11.052;2023-04-03T21:24:37;3.40;;;3.03;;
14272;SDS011;7220;49.450;11.052;2023-04-03T21:28:37;4.05;;;2.97;;
14272;SDS011;7220;49.450;11.052;2023-04-03T21:32:38;4.30;;;2.47;;
14272;SDS011;7220;49.450;11.052;2023-04-03T21:36:38;6.10;;;2.28;;
14272;SDS011;7220;49.450;11.052;2023-04-03T21:40:39;3.22;;;2.33;;
14272;SDS011;7220;49.450;11.052;2023-04-03T21:44:40;6.22;;;2.40;;
14272;SDS011;7220;49.450;11.052;2023-04-03T21:48:40;2.70;;;2.00;;
14272;SDS011;7220;49.450;11.052;2023-04-03T21:52:40;3.15;;;1.90;;
14272;SDS011;7220;49.450;11.052;2023-04-03T21:56:41;4.25;;;2.25;;
14272;SDS011;7220;49.450;11.052;2023-04-03T22:00:41;2.67;;;1.90;;
14272;SDS011;7220;49.450;11.052;2023-04-03T22:04:41;2.28;;;2.00;;
14272;SDS011;7220;49.450;11.052;2023-04-03T22:08:42;4.30;;;2.17;;
14272;SDS011;7220;49.450;11.052;2023-04-03T22:12:43;2.15;;;1.83;;
14272;SDS011;7220;49.450;11.052;2023-04-03T22:16:43;3.05;;;2.22;;
14272;SDS011;7220;49.450;11.052;2023-04-03T22:20:46;3.78;;;2.03;;
14272;SDS011;7220;49.450;11.052;2023-04-03T22:24:46;3.88;;;1.77;;
14272;SDS011;7220;49.450;11.052;2023-04-03T22:28:47;2.55;;;2.10;;
14272;SDS011;7220;49.450;11.052;2023-04-03T22:32:47;4.07;;;2.05;;
14272;SDS011;7220;49.450;11.052;2023-04-03T22:36:47;4.38;;;2.08;;
14272;SDS011;7220;49.450;11.052;2023-04-03T22:40:54;2.90;;;2.22;;
14272;SDS011;7220;49.450;11.052;2023-04-03T22:44:56;2.63;;;2.05;;
14272;SDS011;7220;49.450;11.052;2023-04-03T22:48:57;4.05;;;2.75;;
14272;SDS011;7220;49.450;11.052;2023-04-03T22:52:57;2.42;;;2.15;;
14272;SDS011;7220;49.450;11.052;2023-04-03T22:56:58;2.78;;;2.10;;
14272;SDS011;7220;49.450;11.052;2023-04-03T23:01:11;3.33;;;2.35;;
14272;SDS011;7220;49.450;11.052;2023-04-03T23:05:12;3.38;;;1.92;;
14272;SDS011;7220;49.450;11.052;2023-04-03T23:09:12;3.60;;;2.50;;
14272;SDS011;7220;49.450;11.052;2023-04-03T23:13:13;2.28;;;1.92;;
14272;SDS011;7220;49.450;11.052;2023-04-03T23:17:13;2.33;;;2.10;;
14272;SDS011;7220;49.450;11.052;2023-04-03T23:21:14;3.83;;;2.10;;
14272;SDS011;7220;49.450;11.052;2023-04-03T23:25:15;3.13;;;1.98;;
14272;SDS011;7220;49.450;11.052;2023-04-03T23:29:15;3.05;;;2.22;;
14272;SDS011;7220;49.450;11.052;2023-04-03T23:33:15;2.22;;;1.83;;
14272;SDS011;7220;49.450;11.052;2023-04-03T23:37:16;2.60;;;2.05;;
14272;SDS011;7220;49.450;11.052;2023-04-03T23:41:16;2.40;;;1.77;;
14272;SDS011;7220;49.450;11.052;2023-04-03T23:45:16;2.85;;;2.10;;
14272;SDS011;7220;49.450;11.052;2023-04-03T23:49:17;3.50;;;2.00;;
14272;SDS011;7220;49.450;11.052;2023-04-03T23:53:17;2.08;;;1.80;;
14272;SDS011;7220;49.450;11.052;2023-04-03T23:57:18;2.58;;;2.08;;
